Time;durP1;ratioP1;P1;durP2;ratioP2;P2;SDS_P1;SDS_P2;PMS_P1;PMS_P2;Temp;Humidity;BMP_temperature;BMP_pressure;BME280_temperature;BME280_humidity;BME280_pressure;Samples;Min_cycle;Max_cycle;Signal;HPM_P1;HPM_P2
2022/01/15 00:00:39;;;;;;;42.13;28.87;;;7.40;99.90;;;;;;5018777;28;20298;-23
2022/01/15 00:03:08;;;;;;;42.40;29.13;;;7.40;99.90;;;;;;5022531;28;20215;-23
2022/01/15 00:05:36;;;;;;;47.30;30.03;;;7.40;99.90;;;;;;5014090;28;20221;-23
2022/01/15 00:08:05;;;;;;;43.43;28.43;;;7.40;99.90;;;;;;5028803;28;20734;-25
2022/01/15 00:10:35;;;;;;;43.07;28.70;;;7.40;99.90;;;;;;5022780;28;20253;-25
2022/01/15 00:13:10;;;;;;;41.37;28.47;;;7.40;99.90;;;;;;5023910;28;20205;-25
2022/01/15 00:15:42;;;;;;;41.70;28.63;;;7.30;99.90;;;;;;5021191;28;20227;-25
2022/01/15 00:18:12;;;;;;;46.00;29.70;;;7.30;99.90;;;;;;5036977;28;20213;-25
2022/01/15 00:20:42;;;;;;;41.83;28.03;;;7.30;99.90;;;;;;5020734;28;20255;-23
2022/01/15 00:23:12;;;;;;;42.87;27.70;;;7.30;99.90;;;;;;5023722;28;20227;-23
2022/01/15 00:25:41;;;;;;;43.47;29.57;;;7.30;99.90;;;;;;5024919;28;20270;-23
2022/01/15 00:28:08;;;;;;;46.43;30.87;;;7.30;99.90;;;;;;5023732;28;20201;-23
2022/01/15 00:30:35;;;;;;;43.53;30.83;;;7.30;99.90;;;;;;5021041;28;20228;-23
2022/01/15 00:33:05;;;;;;;48.73;33.07;;;7.20;99.90;;;;;;5027056;28;20256;-23
2022/01/15 00:35:37;;;;;;;49.23;32.93;;;7.20;99.90;;;;;;5020510;28;20240;-23
2022/01/15 00:38:04;;;;;;;49.33;33.23;;;7.20;99.90;;;;;;5025742;28;20205;-24
2022/01/15 00:40:34;;;;;;;45.80;31.30;;;7.20;99.90;;;;;;5024770;28;20217;-25
2022/01/15 00:43:01;;;;;;;47.07;30.60;;;7.20;99.90;;;;;;5022290;28;20201;-23
2022/01/15 00:45:32;;;;;;;44.60;30.00;;;7.20;99.90;;;;;;5011978;28;20204;-23
2022/01/15 00:48:02;;;;;;;46.70;32.13;;;7.20;99.90;;;;;;5025050;28;20197;-23
2022/01/15 00:50:32;;;;;;;44.67;30.70;;;7.20;99.90;;;;;;5047311;28;20765;-24
2022/01/15 00:52:59;;;;;;;46.10;30.03;;;7.20;99.90;;;;;;5005345;28;20276;-24
2022/01/15 00:55:27;;;;;;;45.10;30.23;;;7.20;99.90;;;;;;5020090;28;20205;-23
2022/01/15 00:57:54;;;;;;;43.33;30.53;;;7.20;99.90;;;;;;5020862;28;20675;-23
2022/01/15 01:00:23;;;;;;;47.00;31.43;;;7.20;99.90;;;;;;5017595;28;20220;-24
2022/01/15 01:02:51;;;;;;;48.37;32.77;;;7.10;99.90;;;;;;5017771;28;20232;-23
2022/01/15 01:05:23;;;;;;;48.73;33.33;;;7.20;99.90;;;;;;5022181;28;20215;-23
2022/01/15 01:07:50;;;;;;;53.53;35.43;;;7.10;99.90;;;;;;5021498;28;20203;-23
2022/01/15 01:23:40;;;;;;;56.97;37.33;;;7.00;99.90;;;;;;5016789;28;20233;-23
2022/01/15 01:26:23;;;;;;;50.43;34.20;;;7.00;99.90;;;;;;5025193;28;20212;-24
2022/01/15 01:29:01;;;;;;;59.03;36.27;;;7.10;99.90;;;;;;5014885;28;20197;-24
2022/01/15 01:31:50;;;;;;;56.83;39.17;;;7.00;99.90;;;;;;5005352;28;20239;-23
2022/01/15 01:34:18;;;;;;;57.57;39.07;;;7.00;99.90;;;;;;5013242;28;20578;-23
2022/01/15 01:39:42;;;;;;;58.13;39.23;;;7.00;99.90;;;;;;5021183;28;20209;-23
2022/01/15 01:42:28;;;;;;;58.27;39.37;;;7.00;99.90;;;;;;5021463;28;20621;-24
2022/01/15 01:45:05;;;;;;;59.80;40.43;;;7.00;99.90;;;;;;5025459;28;20691;-24
2022/01/15 01:47:42;;;;;;;61.70;40.13;;;7.00;99.90;;;;;;5019281;28;20730;-23
2022/01/15 01:50:21;;;;;;;63.43;41.20;;;7.00;99.90;;;;;;5020239;28;20344;-23
2022/01/15 01:52:50;;;;;;;64.47;39.37;;;7.00;99.90;;;;;;5018465;28;20217;-23
2022/01/15 01:55:22;;;;;;;64.43;42.00;;;7.00;99.90;;;;;;5021544;28;20205;-23
2022/01/15 01:57:52;;;;;;;63.57;41.57;;;7.00;99.90;;;;;;5017426;28;20250;-23
2022/01/15 02:00:21;;;;;;;63.00;40.47;;;7.00;99.90;;;;;;5020843;28;20201;-23
2022/01/15 02:02:50;;;;;;;68.63;41.77;;;7.00;99.90;;;;;;5013605;28;20300;-23
2022/01/15 02:05:20;;;;;;;68.97;41.80;;;7.00;99.90;;;;;;5025011;28;20666;-23
2022/01/15 02:07:51;;;;;;;65.30;41.23;;;7.00;99.90;;;;;;5037144;28;20279;-23
2022/01/15 02:10:20;;;;;;;70.20;43.87;;;6.90;99.90;;;;;;5028250;28;20697;-23
2022/01/15 02:12:51;;;;;;;74.13;43.17;;;6.90;99.90;;;;;;5053778;28;20707;-23
2022/01/15 02:15:24;;;;;;;65.53;42.17;;;6.90;99.90;;;;;;5029908;28;20582;-23
2022/01/15 02:17:52;;;;;;;68.43;43.00;;;6.90;99.90;;;;;;5026606;28;20566;-23
2022/01/15 02:25:51;;;;;;;67.27;40.50;;;6.90;99.90;;;;;;5029260;28;20292;-23
2022/01/15 02:28:21;;;;;;;77.97;45.13;;;6.90;99.90;;;;;;5013746;28;20220;-23
2022/01/15 02:30:56;;;;;;;73.20;43.70;;;6.90;99.90;;;;;;5027755;28;20205;-23
2022/01/15 02:33:28;;;;;;;75.20;43.17;;;6.90;99.90;;;;;;5021394;28;20717;-23
2022/01/15 02:35:56;;;;;;;77.97;45.27;;;6.90;99.90;;;;;;5029821;28;20224;-23
2022/01/15 02:38:24;;;;;;;80.13;45.47;;;6.90;99.90;;;;;;5024229;28;20732;-23
2022/01/15 02:40:52;;;;;;;75.73;45.23;;;6.80;99.90;;;;;;5022054;28;20762;-24
2022/01/15 02:43:28;;;;;;;75.93;44.57;;;6.80;99.90;;;;;;5028732;28;20211;-23
2022/01/15 02:45:57;;;;;;;76.57;43.60;;;6.80;99.90;;;;;;5017656;28;20207;-24
2022/01/15 02:48:26;;;;;;;77.07;44.03;;;6.80;99.90;;;;;;5023882;28;20675;-23
2022/01/15 02:50:56;;;;;;;76.50;44.53;;;6.80;99.90;;;;;;5029089;28;20348;-23
2022/01/15 02:53:23;;;;;;;79.33;47.27;;;6.80;99.90;;;;;;5025923;28;20215;-23
2022/01/15 02:55:54;;;;;;;86.57;46.43;;;6.80;99.90;;;;;;5029417;28;20229;-23
2022/01/15 02:58:23;;;;;;;81.50;46.13;;;6.80;99.90;;;;;;5027715;28;20215;-23
2022/01/15 03:00:52;;;;;;;83.53;46.93;;;6.80;99.90;;;;;;5026865;28;20249;-23
2022/01/15 03:03:19;;;;;;;78.30;45.10;;;6.80;99.90;;;;;;5029010;28;20213;-23
2022/01/15 03:05:47;;;;;;;77.40;46.53;;;6.70;99.90;;;;;;5027696;28;20208;-23
2022/01/15 03:08:17;;;;;;;76.80;46.13;;;6.70;99.90;;;;;;5025577;28;20246;-23
2022/01/15 03:10:44;;;;;;;82.83;47.27;;;6.80;99.90;;;;;;5029044;28;20211;-23
2022/01/15 03:13:13;;;;;;;83.90;46.83;;;6.70;99.90;;;;;;5029593;28;20659;-23
2022/01/15 03:15:41;;;;;;;82.77;48.93;;;6.70;99.90;;;;;;5022795;28;20207;-23
2022/01/15 03:18:13;;;;;;;81.77;47.60;;;6.70;99.90;;;;;;5026594;28;20200;-23
2022/01/15 03:20:43;;;;;;;84.07;48.63;;;6.70;99.90;;;;;;5027641;28;20295;-24
2022/01/15 03:23:14;;;;;;;83.73;47.20;;;6.70;99.90;;;;;;5026332;28;20204;-23
2022/01/15 03:25:42;;;;;;;83.90;47.27;;;6.70;99.90;;;;;;5027110;28;20201;-23
2022/01/15 03:28:12;;;;;;;83.73;48.23;;;6.60;99.90;;;;;;5055657;28;20245;-23
2022/01/15 03:30:40;;;;;;;81.90;46.10;;;6.60;99.90;;;;;;5027029;28;20203;-23
2022/01/15 03:33:07;;;;;;;82.50;47.87;;;6.60;99.90;;;;;;5025392;28;20207;-23
2022/01/15 03:35:35;;;;;;;82.00;48.77;;;6.60;99.90;;;;;;5025820;28;20671;-24
2022/01/15 03:38:04;;;;;;;83.10;48.07;;;6.60;99.90;;;;;;5010716;28;20217;-23
2022/01/15 03:40:32;;;;;;;82.37;45.57;;;6.60;99.90;;;;;;5026413;28;20207;-23
2022/01/15 03:43:03;;;;;;;80.30;45.53;;;6.60;99.90;;;;;;5027024;28;20241;-23
2022/01/15 03:45:31;;;;;;;84.47;46.37;;;6.60;99.90;;;;;;5026873;28;20213;-23
2022/01/15 03:48:02;;;;;;;82.00;46.17;;;6.60;99.90;;;;;;5022608;28;20208;-23
2022/01/15 03:50:29;;;;;;;83.57;46.40;;;6.60;99.90;;;;;;5024219;28;20231;-23
2022/01/15 03:52:57;;;;;;;89.77;47.33;;;6.50;99.90;;;;;;5020240;28;20214;-23
2022/01/15 03:55:25;;;;;;;87.40;47.60;;;6.60;99.90;;;;;;5027163;28;20315;-23
2022/01/15 03:57:52;;;;;;;83.33;46.70;;;6.50;99.90;;;;;;5023888;28;20308;-23
2022/01/15 04:00:27;;;;;;;84.07;46.03;;;6.50;99.90;;;;;;5023167;28;20193;-23
2022/01/15 04:02:56;;;;;;;84.77;47.37;;;6.50;99.90;;;;;;5028316;28;20232;-25
2022/01/15 04:05:23;;;;;;;88.87;46.57;;;6.50;99.90;;;;;;5024933;28;20224;-25
2022/01/15 04:07:51;;;;;;;93.40;48.23;;;6.50;99.90;;;;;;5013787;28;20209;-25
2022/01/15 04:10:20;;;;;;;94.60;48.93;;;6.50;99.90;;;;;;5025415;28;20197;-25
2022/01/15 04:12:50;;;;;;;88.73;46.97;;;6.50;99.90;;;;;;5025392;28;20200;-25
2022/01/15 04:15:25;;;;;;;92.90;48.50;;;6.50;99.90;;;;;;5027004;28;20212;-25
2022/01/15 04:17:52;;;;;;;94.90;49.07;;;6.50;99.90;;;;;;5025486;28;20209;-25
2022/01/15 04:20:22;;;;;;;98.77;49.30;;;6.40;99.90;;;;;;5023826;28;20300;-25
2022/01/15 04:22:53;;;;;;;89.80;47.30;;;6.40;99.90;;;;;;5026855;28;20417;-25
2022/01/15 04:25:21;;;;;;;94.60;48.93;;;6.40;99.90;;;;;;5023341;28;20224;-25
2022/01/15 04:27:49;;;;;;;98.27;50.90;;;6.40;99.90;;;;;;5035050;28;20696;-25
2022/01/15 04:30:18;;;;;;;95.27;49.93;;;6.40;99.90;;;;;;5024591;28;20710;-25
2022/01/15 04:32:45;;;;;;;90.47;49.37;;;6.40;99.90;;;;;;5021226;28;20212;-25
2022/01/15 04:35:13;;;;;;;98.20;49.10;;;6.40;99.90;;;;;;5027037;28;20243;-25
2022/01/15 04:37:50;;;;;;;100.30;51.17;;;6.40;99.90;;;;;;5019261;28;20215;-25
2022/01/15 04:40:19;;;;;;;93.87;50.53;;;6.40;99.90;;;;;;5023753;28;20228;-25
2022/01/15 04:42:47;;;;;;;95.33;51.23;;;6.40;99.90;;;;;;5025612;28;20285;-25
2022/01/15 04:45:14;;;;;;;97.83;51.03;;;6.40;99.90;;;;;;5027746;28;20672;-25
2022/01/15 04:47:41;;;;;;;99.50;51.80;;;6.40;99.90;;;;;;5024377;28;20294;-25
2022/01/15 04:50:12;;;;;;;98.33;50.60;;;6.40;99.90;;;;;;5023865;28;20260;-25
2022/01/15 04:52:40;;;;;;;97.23;51.50;;;6.40;99.90;;;;;;5019224;28;20204;-25
2022/01/15 04:55:09;;;;;;;92.47;50.13;;;6.40;99.90;;;;;;5026872;28;20215;-25
2022/01/15 04:57:41;;;;;;;93.60;48.07;;;6.30;99.90;;;;;;5018238;28;20656;-25
2022/01/15 05:00:11;;;;;;;87.40;46.47;;;6.30;99.90;;;;;;5021323;28;20691;-25
2022/01/15 05:02:38;;;;;;;87.57;46.03;;;6.30;99.90;;;;;;5024041;28;20229;-25
2022/01/15 05:05:09;;;;;;;86.43;45.53;;;6.30;99.90;;;;;;5026104;28;20308;-25
2022/01/15 05:07:36;;;;;;;93.70;43.70;;;6.30;99.90;;;;;;5022328;28;20562;-25
2022/01/15 05:10:11;;;;;;;83.13;42.07;;;6.30;99.90;;;;;;5018499;28;20209;-25
2022/01/15 05:12:42;;;;;;;85.27;42.37;;;6.20;99.90;;;;;;5021970;28;20261;-25
2022/01/15 05:15:12;;;;;;;84.90;43.33;;;6.20;99.90;;;;;;5025852;28;20263;-25
2022/01/15 05:17:40;;;;;;;84.90;40.63;;;6.20;99.90;;;;;;5026074;28;20252;-25
2022/01/15 05:20:09;;;;;;;84.57;40.43;;;6.10;99.90;;;;;;5024426;28;20201;-25
2022/01/15 05:22:37;;;;;;;80.13;40.97;;;6.10;99.90;;;;;;5022647;28;20613;-25
2022/01/15 05:25:07;;;;;;;85.63;41.27;;;6.10;99.90;;;;;;5026802;28;20209;-25
2022/01/15 05:27:43;;;;;;;85.70;41.93;;;6.10;99.90;;;;;;5024321;28;20204;-25
2022/01/15 05:30:11;;;;;;;86.40;40.90;;;6.10;99.90;;;;;;5022670;28;20204;-25
2022/01/15 05:32:39;;;;;;;84.33;39.80;;;6.10;99.90;;;;;;5022158;28;20211;-25
2022/01/15 05:35:07;;;;;;;91.13;40.97;;;6.10;99.90;;;;;;5026582;28;20235;-25
2022/01/15 05:37:36;;;;;;;87.97;37.83;;;6.10;99.90;;;;;;5030507;28;20208;-25
2022/01/15 05:40:05;;;;;;;84.23;38.43;;;6.10;99.90;;;;;;5026488;28;20208;-25
2022/01/15 05:42:35;;;;;;;81.33;36.53;;;6.10;99.90;;;;;;5028078;28;20266;-25
2022/01/15 05:45:03;;;;;;;80.50;38.30;;;6.10;99.90;;;;;;5030423;28;20288;-25
2022/01/15 05:47:30;;;;;;;78.30;37.37;;;6.10;99.90;;;;;;5028642;28;20211;-25
2022/01/15 05:49:57;;;;;;;85.53;38.40;;;6.00;99.90;;;;;;5027379;28;20244;-25
2022/01/15 05:52:27;;;;;;;83.40;37.13;;;6.00;99.90;;;;;;5029272;28;20372;-25
2022/01/15 05:54:57;;;;;;;81.13;38.30;;;6.00;99.90;;;;;;5029017;28;20204;-25
2022/01/15 05:57:27;;;;;;;87.23;39.10;;;6.00;99.90;;;;;;5026661;28;20682;-25
2022/01/15 05:59:54;;;;;;;81.50;36.47;;;6.00;99.90;;;;;;5021509;28;20896;-25
2022/01/15 06:02:22;;;;;;;78.67;36.50;;;6.00;99.90;;;;;;5022307;28;20221;-25
2022/01/15 06:04:49;;;;;;;81.07;36.90;;;6.00;99.90;;;;;;5019866;28;20574;-25
2022/01/15 06:07:17;;;;;;;83.60;36.07;;;6.00;99.90;;;;;;5020711;28;20554;-25
2022/01/15 06:09:46;;;;;;;81.80;36.70;;;6.00;99.90;;;;;;5020155;28;20213;-25
2022/01/15 06:12:13;;;;;;;78.50;36.60;;;6.00;99.90;;;;;;5020270;28;20201;-25
2022/01/15 06:14:41;;;;;;;82.37;35.17;;;6.00;99.90;;;;;;5018701;28;20713;-25
2022/01/15 06:17:09;;;;;;;79.20;36.17;;;6.00;99.90;;;;;;5022477;28;20304;-25
2022/01/15 06:19:37;;;;;;;81.23;38.13;;;6.00;99.90;;;;;;5021447;28;20205;-25
2022/01/15 06:22:04;;;;;;;87.63;37.23;;;5.90;99.90;;;;;;5018589;28;20227;-25
2022/01/15 06:24:35;;;;;;;82.47;35.67;;;5.90;99.90;;;;;;5022737;28;20236;-25
2022/01/15 06:27:08;;;;;;;84.13;36.53;;;6.00;99.90;;;;;;5023040;28;20205;-25
2022/01/15 06:29:35;;;;;;;93.27;37.33;;;5.90;99.90;;;;;;5023102;28;20308;-25
2022/01/15 06:32:03;;;;;;;81.50;36.97;;;5.90;99.90;;;;;;5022980;28;20216;-25
2022/01/15 06:34:31;;;;;;;82.00;36.67;;;5.90;99.90;;;;;;5023621;28;20223;-25
2022/01/15 06:36:59;;;;;;;87.00;37.60;;;5.90;99.90;;;;;;5028001;28;20286;-25
2022/01/15 06:39:29;;;;;;;81.43;36.00;;;5.90;99.90;;;;;;5018836;28;20209;-25
2022/01/15 06:41:56;;;;;;;90.83;38.00;;;5.90;99.90;;;;;;5018592;28;20232;-25
2022/01/15 06:44:23;;;;;;;76.00;36.57;;;5.90;99.90;;;;;;5027163;28;20217;-25
2022/01/15 06:46:50;;;;;;;82.27;38.23;;;5.90;99.90;;;;;;5027027;28;20201;-25
2022/01/15 06:49:17;;;;;;;89.00;37.67;;;5.90;99.90;;;;;;5028923;28;20189;-25
2022/01/15 06:51:44;;;;;;;82.70;36.43;;;5.90;99.90;;;;;;5019946;28;21008;-25
2022/01/15 06:54:12;;;;;;;87.53;37.53;;;5.90;99.90;;;;;;5024859;28;20331;-25
2022/01/15 06:56:40;;;;;;;80.70;36.27;;;6.00;99.90;;;;;;5026474;28;20204;-25
2022/01/15 06:59:08;;;;;;;83.63;36.00;;;5.90;99.90;;;;;;5025208;28;20233;-25
2022/01/15 07:01:35;;;;;;;85.13;36.97;;;5.90;99.90;;;;;;5026940;28;20252;-25
2022/01/15 07:04:05;;;;;;;85.80;37.43;;;5.90;99.90;;;;;;5028306;28;20201;-25
2022/01/15 07:06:34;;;;;;;85.93;36.30;;;5.90;99.90;;;;;;5026598;28;20213;-25
2022/01/15 07:09:02;;;;;;;78.33;37.40;;;5.90;99.90;;;;;;5018388;28;20666;-25
2022/01/15 07:11:33;;;;;;;82.70;35.83;;;5.90;99.90;;;;;;5015194;28;20201;-25
2022/01/15 07:14:01;;;;;;;80.60;35.00;;;5.90;99.90;;;;;;5025198;28;20707;-25
2022/01/15 07:16:28;;;;;;;86.33;36.70;;;5.90;99.90;;;;;;5027494;28;20209;-25
2022/01/15 07:18:55;;;;;;;75.27;34.13;;;5.90;99.90;;;;;;5028012;28;20205;-25
2022/01/15 07:21:22;;;;;;;86.90;35.60;;;5.90;99.90;;;;;;5029364;28;20197;-25
2022/01/15 07:23:50;;;;;;;77.27;34.27;;;5.90;99.90;;;;;;5028721;28;20670;-25
2022/01/15 07:26:17;;;;;;;70.10;32.50;;;5.90;99.90;;;;;;5028810;28;20197;-25
2022/01/15 07:28:44;;;;;;;70.90;32.87;;;5.90;99.90;;;;;;5027729;28;20213;-25
2022/01/15 07:31:13;;;;;;;73.60;33.83;;;5.80;99.90;;;;;;5020506;28;20197;-25
2022/01/15 07:33:41;;;;;;;72.73;33.27;;;5.80;99.90;;;;;;5027320;28;20251;-25
2022/01/15 07:36:08;;;;;;;74.40;33.70;;;5.80;99.90;;;;;;5028688;28;20220;-25
2022/01/15 07:38:35;;;;;;;80.60;34.90;;;5.80;99.90;;;;;;5028094;28;20216;-25
2022/01/15 07:41:06;;;;;;;74.93;32.10;;;5.80;99.90;;;;;;5025197;28;20225;-25
2022/01/15 07:43:35;;;;;;;73.87;33.10;;;5.80;99.90;;;;;;5027505;28;20252;-25
2022/01/15 07:46:03;;;;;;;76.37;33.30;;;5.80;99.90;;;;;;5028984;28;20208;-25
2022/01/15 07:48:30;;;;;;;72.53;32.60;;;5.80;99.90;;;;;;5022436;28;20733;-25
2022/01/15 07:50:57;;;;;;;73.53;33.00;;;5.80;99.90;;;;;;5022040;28;20228;-25
2022/01/15 07:53:24;;;;;;;72.20;32.90;;;5.70;99.90;;;;;;5027507;28;20221;-25
2022/01/15 07:55:52;;;;;;;69.53;31.70;;;5.70;99.90;;;;;;5028335;28;20209;-25
2022/01/15 07:58:19;;;;;;;70.33;31.63;;;5.70;99.90;;;;;;5026736;28;20324;-25
2022/01/15 08:00:46;;;;;;;68.77;32.77;;;5.70;99.90;;;;;;5028545;28;20308;-25
2022/01/15 08:03:13;;;;;;;69.50;30.50;;;5.70;99.90;;;;;;5028384;28;20239;-25
2022/01/15 08:05:44;;;;;;;67.00;30.50;;;5.70;99.90;;;;;;5025544;28;20231;-25
2022/01/15 08:08:11;;;;;;;65.70;29.67;;;5.70;99.90;;;;;;5027043;28;20197;-25
2022/01/15 08:10:38;;;;;;;63.27;28.50;;;5.70;99.90;;;;;;5027718;28;20227;-25
2022/01/15 08:13:05;;;;;;;64.50;29.47;;;5.70;99.90;;;;;;5028634;28;20208;-25
2022/01/15 08:15:35;;;;;;;66.17;29.07;;;5.70;99.90;;;;;;5028439;28;20685;-25
2022/01/15 08:18:02;;;;;;;62.73;28.47;;;5.70;99.90;;;;;;5027822;28;20220;-25
2022/01/15 08:20:30;;;;;;;66.53;29.53;;;5.70;99.90;;;;;;5026763;28;20584;-25
2022/01/15 08:22:57;;;;;;;64.43;28.67;;;5.70;99.90;;;;;;5025033;28;20216;-25
2022/01/15 08:25:27;;;;;;;64.80;28.63;;;5.60;99.90;;;;;;5027595;28;20810;-25
2022/01/15 08:27:56;;;;;;;61.40;28.20;;;5.60;99.90;;;;;;5026116;28;20225;-25
2022/01/15 08:30:29;;;;;;;60.57;28.27;;;5.60;99.90;;;;;;5032047;28;20212;-25
2022/01/15 08:32:56;;;;;;;64.60;28.63;;;5.60;99.90;;;;;;5026399;28;20205;-25
2022/01/15 08:35:26;;;;;;;61.70;29.77;;;5.60;99.90;;;;;;5027389;28;20675;-25
2022/01/15 08:37:54;;;;;;;64.20;28.83;;;5.60;99.90;;;;;;5028539;28;20740;-25
2022/01/15 08:40:24;;;;;;;63.83;27.73;;;5.60;99.90;;;;;;5026927;28;20528;-25
2022/01/15 08:42:51;;;;;;;57.23;27.43;;;5.60;99.90;;;;;;5027583;28;20220;-25
2022/01/15 08:45:21;;;;;;;62.13;27.63;;;5.60;99.90;;;;;;5026085;28;20201;-25
2022/01/15 08:47:50;;;;;;;61.57;29.13;;;5.60;99.90;;;;;;5026724;28;20641;-25
2022/01/15 08:50:18;;;;;;;58.87;27.70;;;5.60;99.90;;;;;;5026555;28;20225;-25
2022/01/15 08:52:45;;;;;;;61.10;27.33;;;5.60;99.90;;;;;;5026380;28;20652;-25
2022/01/15 08:55:13;;;;;;;62.13;29.03;;;5.60;99.90;;;;;;5027102;28;20287;-25
2022/01/15 08:57:42;;;;;;;55.63;26.60;;;5.60;99.90;;;;;;5025519;28;20208;-25
2022/01/15 09:00:17;;;;;;;54.73;25.83;;;5.60;99.90;;;;;;5023606;28;20209;-25
2022/01/15 09:02:45;;;;;;;54.47;25.30;;;5.60;99.90;;;;;;5027895;28;20343;-25
2022/01/15 09:05:15;;;;;;;53.33;24.97;;;5.60;99.90;;;;;;5025997;28;20247;-25
2022/01/15 09:07:45;;;;;;;55.03;25.00;;;5.60;99.90;;;;;;5027975;28;20284;-29
2022/01/15 09:10:12;;;;;;;53.73;25.17;;;5.60;99.90;;;;;;5027075;28;20243;-25
2022/01/15 09:12:42;;;;;;;51.57;24.70;;;5.60;99.90;;;;;;5027602;28;20266;-25
2022/01/15 09:15:30;;;;;;;48.53;23.80;;;5.60;99.90;;;;;;5026718;28;20208;-25
2022/01/15 09:17:57;;;;;;;51.00;24.43;;;5.60;99.90;;;;;;5027818;28;20274;-25
2022/01/15 09:20:25;;;;;;;53.60;25.97;;;5.60;99.90;;;;;;5025948;28;20670;-25
2022/01/15 09:22:52;;;;;;;53.60;26.27;;;5.50;99.90;;;;;;5027559;28;20224;-25
2022/01/15 09:25:20;;;;;;;53.53;25.00;;;5.50;99.90;;;;;;5025394;28;20694;-25
2022/01/15 09:30:33;;;;;;;54.37;26.03;;;5.50;99.90;;;;;;5017612;28;20204;-25
2022/01/15 09:33:02;;;;;;;53.33;25.97;;;5.40;99.90;;;;;;5020244;28;20235;-23
2022/01/15 09:35:30;;;;;;;51.43;24.30;;;5.40;99.90;;;;;;5020550;28;20236;-23
2022/01/15 09:38:06;;;;;;;53.97;25.00;;;5.40;99.90;;;;;;5027161;28;20247;-23
2022/01/15 09:40:34;;;;;;;49.43;24.17;;;5.50;99.90;;;;;;5027187;28;20197;-23
2022/01/15 09:43:05;;;;;;;48.53;24.17;;;5.50;99.90;;;;;;5025402;28;20216;-23
2022/01/15 09:45:35;;;;;;;48.97;25.13;;;5.50;99.90;;;;;;5025362;28;20307;-23
2022/01/15 09:48:06;;;;;;;48.17;24.63;;;5.50;99.90;;;;;;5020818;28;20608;-23
2022/01/15 09:50:37;;;;;;;49.03;24.67;;;5.50;99.90;;;;;;5020524;28;20229;-25
2022/01/15 09:53:07;;;;;;;47.93;24.07;;;5.50;99.90;;;;;;5015282;28;20204;-25
2022/01/15 09:55:34;;;;;;;47.87;24.87;;;5.50;99.90;;;;;;5024793;28;20216;-25
2022/01/15 09:58:02;;;;;;;43.90;22.70;;;5.50;99.90;;;;;;5026001;28;20212;-25
2022/01/15 10:00:32;;;;;;;47.93;23.73;;;5.50;99.90;;;;;;5026846;28;20489;-25
2022/01/15 10:03:01;;;;;;;48.23;22.70;;;5.60;99.90;;;;;;5027165;28;20689;-25
2022/01/15 10:05:29;;;;;;;42.53;21.63;;;5.60;99.90;;;;;;5026103;28;20219;-25
2022/01/15 10:08:09;;;;;;;36.83;20.77;;;5.60;99.90;;;;;;5058894;28;20205;-25
2022/01/15 10:10:53;;;;;;;39.40;20.87;;;5.60;99.90;;;;;;5024132;28;20201;-25
2022/01/15 10:13:23;;;;;;;37.23;21.23;;;5.60;99.90;;;;;;5022484;28;20232;-25
2022/01/15 10:16:11;;;;;;;35.07;20.13;;;5.50;99.90;;;;;;5021735;28;20597;-25
2022/01/15 10:18:44;;;;;;;39.03;20.13;;;5.50;99.90;;;;;;5024379;28;20205;-25
2022/01/15 10:21:23;;;;;;;35.20;19.07;;;5.50;99.90;;;;;;5028827;28;20217;-26
2022/01/15 10:23:58;;;;;;;33.73;20.17;;;5.40;99.90;;;;;;5026999;28;20464;-25
2022/01/15 10:26:35;;;;;;;32.97;19.67;;;5.50;99.90;;;;;;5026861;28;20667;-25
2022/01/15 10:29:06;;;;;;;34.23;18.40;;;5.50;99.90;;;;;;5025021;28;20212;-25
2022/01/15 10:31:39;;;;;;;34.77;19.47;;;5.50;99.90;;;;;;5026302;28;20204;-25
2022/01/15 10:34:27;;;;;;;30.53;18.07;;;5.50;99.90;;;;;;5025712;28;20590;-25
2022/01/15 10:37:25;;;;;;;28.17;17.60;;;5.50;99.90;;;;;;5061896;28;20308;-26
2022/01/15 10:39:57;;;;;;;29.63;17.50;;;5.50;99.90;;;;;;5008436;28;20206;-25
2022/01/15 10:42:27;;;;;;;30.13;18.53;;;5.50;99.90;;;;;;5024262;28;20693;-25
2022/01/15 10:44:57;;;;;;;29.60;17.13;;;5.50;99.90;;;;;;5028257;28;20723;-25
2022/01/15 10:47:27;;;;;;;25.90;16.73;;;5.50;99.90;;;;;;5029957;28;20263;-25
2022/01/15 10:50:02;;;;;;;31.80;18.17;;;5.50;99.90;;;;;;5029051;28;20216;-25
2022/01/15 10:52:30;;;;;;;29.63;17.37;;;5.50;99.90;;;;;;5028907;28;20671;-26
2022/01/15 10:55:07;;;;;;;29.23;16.77;;;5.60;99.90;;;;;;5026936;28;20221;-26
2022/01/15 10:57:38;;;;;;;29.23;17.13;;;5.60;99.90;;;;;;5026352;28;20209;-25
2022/01/15 11:00:11;;;;;;;28.70;17.60;;;5.60;99.90;;;;;;5029519;28;20307;-24
2022/01/15 11:02:43;;;;;;;29.00;18.33;;;5.60;99.90;;;;;;5029145;28;20224;-25
2022/01/15 11:05:23;;;;;;;31.17;17.93;;;5.60;99.90;;;;;;5027035;28;20212;-25
2022/01/15 11:07:54;;;;;;;27.37;17.87;;;5.60;99.90;;;;;;5024649;28;20789;-25
2022/01/15 11:10:22;;;;;;;29.87;18.43;;;5.60;99.90;;;;;;5029403;28;20808;-25
2022/01/15 11:12:49;;;;;;;27.37;17.47;;;5.60;99.90;;;;;;5029164;28;20691;-31
2022/01/15 11:15:16;;;;;;;29.07;17.80;;;5.60;99.90;;;;;;5028590;28;20584;-25
2022/01/15 11:17:45;;;;;;;31.93;19.30;;;5.60;99.90;;;;;;5020247;28;20232;-25
2022/01/15 11:20:21;;;;;;;32.60;19.53;;;5.60;99.90;;;;;;5009037;28;20641;-25
2022/01/15 11:22:52;;;;;;;30.77;19.23;;;5.60;99.90;;;;;;5014751;28;20654;-25
2022/01/15 11:25:20;;;;;;;32.53;20.20;;;5.60;99.90;;;;;;5028271;28;20197;-25
2022/01/15 11:27:50;;;;;;;31.10;18.87;;;5.70;99.90;;;;;;5029343;28;20217;-24
2022/01/15 11:30:20;;;;;;;33.27;19.40;;;5.70;99.90;;;;;;5027896;28;20244;-23
2022/01/15 11:32:53;;;;;;;33.93;19.47;;;5.70;99.90;;;;;;5028948;28;20209;-24
2022/01/15 11:35:20;;;;;;;31.70;19.10;;;5.70;99.90;;;;;;5043892;28;20862;-24
2022/01/15 11:37:56;;;;;;;31.37;19.63;;;5.70;99.90;;;;;;5029463;28;20278;-24
2022/01/15 11:40:33;;;;;;;31.27;18.53;;;5.70;99.90;;;;;;5028648;28;20217;-24
2022/01/15 11:43:31;;;;;;;31.03;18.83;;;5.80;99.90;;;;;;5026834;28;20233;-24
2022/01/15 11:46:03;;;;;;;34.57;19.10;;;5.80;99.90;;;;;;5027795;28;20296;-24
2022/01/15 11:48:33;;;;;;;29.33;18.83;;;5.80;99.90;;;;;;5009693;28;20213;-24
2022/01/15 11:51:18;;;;;;;29.73;18.30;;;5.80;99.90;;;;;;5028903;28;20658;-24
2022/01/15 11:53:54;;;;;;;29.13;18.47;;;5.80;99.90;;;;;;5027823;28;20220;-24
2022/01/15 11:56:24;;;;;;;27.10;17.50;;;5.80;99.90;;;;;;5027487;28;20208;-24
2022/01/15 11:58:53;;;;;;;30.67;18.87;;;5.80;99.90;;;;;;5023809;28;20255;-24
2022/01/15 12:01:47;;;;;;;29.97;18.27;;;5.80;99.90;;;;;;5028559;28;20205;-24
2022/01/15 12:04:26;;;;;;;27.33;18.13;;;5.80;99.90;;;;;;5016061;28;20749;-24
2022/01/15 12:07:05;;;;;;;28.57;17.80;;;5.80;99.90;;;;;;5025695;28;20209;-24
2022/01/15 12:09:44;;;;;;;27.93;18.30;;;5.80;99.90;;;;;;5048770;28;20231;-24
2022/01/15 12:12:18;;;;;;;27.13;18.10;;;5.80;99.90;;;;;;5033110;28;20204;-25
2022/01/15 12:14:50;;;;;;;30.77;18.63;;;5.80;99.90;;;;;;5030618;28;20244;-24
2022/01/15 12:17:38;;;;;;;28.77;18.73;;;5.80;99.90;;;;;;5030186;28;20536;-24
2022/01/15 12:20:18;;;;;;;28.63;18.30;;;5.90;99.90;;;;;;5046175;28;20200;-24
2022/01/15 12:22:51;;;;;;;31.33;18.87;;;5.90;99.90;;;;;;5041591;28;20211;-24
2022/01/15 12:25:20;;;;;;;28.63;19.17;;;5.90;99.90;;;;;;5028255;28;20606;-24
2022/01/15 12:27:55;;;;;;;27.93;18.40;;;5.90;99.90;;;;;;5026152;28;20520;-24
2022/01/15 12:30:24;;;;;;;28.73;18.80;;;5.90;99.90;;;;;;5027826;28;20208;-26
2022/01/15 12:32:53;;;;;;;27.80;18.67;;;5.90;99.90;;;;;;5027461;28;20304;-26
2022/01/15 12:35:26;;;;;;;29.57;19.47;;;5.90;99.90;;;;;;5025582;28;20714;-26
2022/01/15 12:37:56;;;;;;;25.13;17.57;;;5.90;99.90;;;;;;5024422;28;20212;-26
2022/01/15 12:40:35;;;;;;;29.60;19.90;;;6.00;99.90;;;;;;5027251;28;20213;-26
2022/01/15 12:43:18;;;;;;;27.43;17.90;;;6.00;99.90;;;;;;5026979;28;20204;-26
2022/01/15 12:45:54;;;;;;;23.27;17.23;;;6.00;99.90;;;;;;5027566;28;20204;-26
2022/01/15 12:48:27;;;;;;;26.10;17.47;;;6.10;99.90;;;;;;5032845;28;20210;-26
2022/01/15 12:50:56;;;;;;;25.50;17.20;;;6.10;99.90;;;;;;5047080;28;20258;-26
2022/01/15 12:53:26;;;;;;;26.43;18.17;;;6.10;99.90;;;;;;5031650;28;20208;-26
2022/01/15 12:55:57;;;;;;;25.73;17.70;;;6.20;99.90;;;;;;5010259;28;20201;-26
2022/01/15 12:58:27;;;;;;;29.43;18.80;;;6.20;99.90;;;;;;5041482;28;20575;-26
2022/01/15 13:00:55;;;;;;;27.43;18.03;;;6.20;99.90;;;;;;5026383;28;20449;-26
2022/01/15 13:03:24;;;;;;;26.47;18.43;;;6.20;99.90;;;;;;5019886;28;20299;-26
2022/01/15 13:05:57;;;;;;;27.77;17.87;;;6.30;99.90;;;;;;5016087;28;20337;-26
2022/01/15 13:08:32;;;;;;;26.73;17.67;;;6.30;99.90;;;;;;5027520;28;20676;-26
2022/01/15 13:11:08;;;;;;;26.53;18.30;;;6.30;99.90;;;;;;5027308;28;20199;-26
2022/01/15 13:13:38;;;;;;;28.13;18.77;;;6.40;99.90;;;;;;5027070;28;20304;-26
2022/01/15 13:16:14;;;;;;;26.10;18.17;;;6.40;99.90;;;;;;5024146;28;20201;-26